sensor_id;sensor_type;location;lat;lon;timestamp;P1;durP1;ratioP1;P2;durP2;ratioP2
16693;SDS011;39538;52.196;9.892;2022-10-19T00:02:23;11.67;;;11.20;;
16693;SDS011;39538;52.196;9.892;2022-10-19T00:04:50;15.40;;;13.37;;
16693;SDS011;39538;52.196;9.892;2022-10-19T00:07:16;14.27;;;13.63;;
16693;SDS011;39538;52.196;9.892;2022-10-19T00:09:43;11.47;;;10.63;;
16693;SDS011;39538;52.196;9.892;2022-10-19T00:12:10;11.97;;;11.33;;
16693;SDS011;39538;52.196;9.892;2022-10-19T00:14:37;12.17;;;11.13;;
16693;SDS011;39538;52.196;9.892;2022-10-19T00:17:03;14.57;;;13.60;;
16693;SDS011;39538;52.196;9.892;2022-10-19T00:19:31;15.60;;;14.93;;
16693;SDS011;39538;52.196;9.892;2022-10-19T00:21:59;18.57;;;17.37;;
16693;SDS011;39538;52.196;9.892;2022-10-19T00:24:26;18.87;;;17.97;;
16693;SDS011;39538;52.196;9.892;2022-10-19T00:26:52;18.23;;;17.20;;
16693;SDS011;39538;52.196;9.892;2022-10-19T00:29:19;17.43;;;16.40;;
16693;SDS011;39538;52.196;9.892;2022-10-19T00:31:47;21.47;;;20.37;;
16693;SDS011;39538;52.196;9.892;2022-10-19T00:34:14;19.93;;;19.00;;
16693;SDS011;39538;52.196;9.892;2022-10-19T00:36:42;19.17;;;17.70;;
16693;SDS011;39538;52.196;9.892;2022-10-19T00:39:10;22.07;;;20.87;;
16693;SDS011;39538;52.196;9.892;2022-10-19T00:41:39;20.07;;;19.17;;
16693;SDS011;39538;52.196;9.892;2022-10-19T00:47:07;16.70;;;16.00;;
16693;SDS011;39538;52.196;9.892;2022-10-19T00:49:34;19.47;;;18.10;;
16693;SDS011;39538;52.196;9.892;2022-10-19T00:52:07;22.07;;;20.00;;
16693;SDS011;39538;52.196;9.892;2022-10-19T00:54:36;14.67;;;14.13;;
16693;SDS011;39538;52.196;9.892;2022-10-19T00:57:05;18.70;;;17.80;;
16693;SDS011;39538;52.196;9.892;2022-10-19T00:59:33;20.13;;;19.10;;
16693;SDS011;39538;52.196;9.892;2022-10-19T01:02:02;19.10;;;18.07;;
16693;SDS011;39538;52.196;9.892;2022-10-19T01:04:30;19.50;;;18.77;;
16693;SDS011;39538;52.196;9.892;2022-10-19T01:06:59;22.83;;;21.70;;
16693;SDS011;39538;52.196;9.892;2022-10-19T01:09:29;22.13;;;20.93;;
16693;SDS011;39538;52.196;9.892;2022-10-19T01:11:56;20.07;;;18.40;;
16693;SDS011;39538;52.196;9.892;2022-10-19T01:14:32;16.93;;;16.13;;
16693;SDS011;39538;52.196;9.892;2022-10-19T01:17:09;21.07;;;18.80;;
16693;SDS011;39538;52.196;9.892;2022-10-19T01:19:57;19.63;;;18.10;;
16693;SDS011;39538;52.196;9.892;2022-10-19T01:22:50;15.13;;;14.27;;
16693;SDS011;39538;52.196;9.892;2022-10-19T01:25:30;16.63;;;15.87;;
16693;SDS011;39538;52.196;9.892;2022-10-19T01:28:17;15.70;;;15.00;;
16693;SDS011;39538;52.196;9.892;2022-10-19T01:30:56;18.47;;;16.17;;
16693;SDS011;39538;52.196;9.892;2022-10-19T01:33:29;14.13;;;13.53;;
16693;SDS011;39538;52.196;9.892;2022-10-19T01:36:06;14.30;;;13.47;;
16693;SDS011;39538;52.196;9.892;2022-10-19T01:38:44;14.50;;;13.53;;
16693;SDS011;39538;52.196;9.892;2022-10-19T01:41:16;13.80;;;13.10;;
16693;SDS011;39538;52.196;9.892;2022-10-19T01:43:49;15.07;;;13.60;;
16693;SDS011;39538;52.196;9.892;2022-10-19T01:46:26;15.00;;;14.10;;
16693;SDS011;39538;52.196;9.892;2022-10-19T01:48:57;16.37;;;14.77;;
16693;SDS011;39538;52.196;9.892;2022-10-19T01:51:30;13.33;;;12.47;;
16693;SDS011;39538;52.196;9.892;2022-10-19T01:54:00;14.90;;;13.73;;
16693;SDS011;39538;52.196;9.892;2022-10-19T01:56:30;11.03;;;10.27;;
16693;SDS011;39538;52.196;9.892;2022-10-19T01:58:59;11.63;;;10.93;;
16693;SDS011;39538;52.196;9.892;2022-10-19T02:01:33;14.53;;;13.63;;
16693;SDS011;39538;52.196;9.892;2022-10-19T02:04:03;91.07;;;76.07;;
16693;SDS011;39538;52.196;9.892;2022-10-19T02:06:30;15.03;;;1.87;;
16693;SDS011;39538;52.196;9.892;2022-10-19T02:08:57;5.80;;;2.07;;
16693;SDS011;39538;52.196;9.892;2022-10-19T02:11:24;4.33;;;1.50;;
16693;SDS011;39538;52.196;9.892;2022-10-19T02:13:51;10.97;;;2.13;;
16693;SDS011;39538;52.196;9.892;2022-10-19T02:16:25;7.83;;;2.00;;
16693;SDS011;39538;52.196;9.892;2022-10-19T02:18:56;3.07;;;1.33;;
16693;SDS011;39538;52.196;9.892;2022-10-19T02:21:25;5.80;;;1.33;;
16693;SDS011;39538;52.196;9.892;2022-10-19T02:23:52;5.03;;;1.80;;
16693;SDS011;39538;52.196;9.892;2022-10-19T02:26:19;5.20;;;1.27;;
16693;SDS011;39538;52.196;9.892;2022-10-19T02:28:46;7.17;;;1.93;;
16693;SDS011;39538;52.196;9.892;2022-10-19T02:31:13;6.63;;;1.80;;
16693;SDS011;39538;52.196;9.892;2022-10-19T02:33:40;10.43;;;1.50;;
16693;SDS011;39538;52.196;9.892;2022-10-19T02:36:08;5.93;;;1.57;;
16693;SDS011;39538;52.196;9.892;2022-10-19T02:38:35;2.60;;;1.10;;
16693;SDS011;39538;52.196;9.892;2022-10-19T02:41:03;11.90;;;1.87;;
16693;SDS011;39538;52.196;9.892;2022-10-19T02:43:37;4.67;;;1.43;;
16693;SDS011;39538;52.196;9.892;2022-10-19T02:46:08;2.80;;;1.40;;
16693;SDS011;39538;52.196;9.892;2022-10-19T02:48:39;5.37;;;1.50;;
16693;SDS011;39538;52.196;9.892;2022-10-19T02:53:53;2.63;;;1.40;;
16693;SDS011;39538;52.196;9.892;2022-10-19T02:56:20;5.10;;;1.83;;
16693;SDS011;39538;52.196;9.892;2022-10-19T02:58:47;9.33;;;1.80;;
16693;SDS011;39538;52.196;9.892;2022-10-19T03:01:14;7.50;;;1.40;;
16693;SDS011;39538;52.196;9.892;2022-10-19T03:03:41;6.87;;;1.83;;
16693;SDS011;39538;52.196;9.892;2022-10-19T03:06:07;6.77;;;1.30;;
16693;SDS011;39538;52.196;9.892;2022-10-19T03:08:36;4.80;;;4.13;;
16693;SDS011;39538;52.196;9.892;2022-10-19T03:11:02;3.43;;;1.50;;
16693;SDS011;39538;52.196;9.892;2022-10-19T03:13:29;5.30;;;1.73;;
16693;SDS011;39538;52.196;9.892;2022-10-19T03:15:56;7.17;;;1.33;;
16693;SDS011;39538;52.196;9.892;2022-10-19T03:18:23;2.30;;;0.93;;
16693;SDS011;39538;52.196;9.892;2022-10-19T03:20:49;7.07;;;3.53;;
16693;SDS011;39538;52.196;9.892;2022-10-19T03:23:16;2.57;;;1.37;;
16693;SDS011;39538;52.196;9.892;2022-10-19T03:25:44;7.20;;;1.77;;
16693;SDS011;39538;52.196;9.892;2022-10-19T03:28:10;4.50;;;1.60;;
16693;SDS011;39538;52.196;9.892;2022-10-19T03:30:37;4.90;;;1.60;;
16693;SDS011;39538;52.196;9.892;2022-10-19T03:33:04;5.53;;;1.43;;
16693;SDS011;39538;52.196;9.892;2022-10-19T03:35:30;3.20;;;1.50;;
16693;SDS011;39538;52.196;9.892;2022-10-19T03:37:57;2.37;;;2.13;;
16693;SDS011;39538;52.196;9.892;2022-10-19T03:40:24;2.80;;;1.83;;
16693;SDS011;39538;52.196;9.892;2022-10-19T03:42:52;4.37;;;1.73;;
16693;SDS011;39538;52.196;9.892;2022-10-19T03:45:18;13.93;;;2.03;;
16693;SDS011;39538;52.196;9.892;2022-10-19T03:47:47;7.73;;;3.67;;
16693;SDS011;39538;52.196;9.892;2022-10-19T03:50:15;3.50;;;1.50;;
16693;SDS011;39538;52.196;9.892;2022-10-19T03:52:42;5.50;;;1.53;;
16693;SDS011;39538;52.196;9.892;2022-10-19T03:55:09;3.80;;;1.10;;
16693;SDS011;39538;52.196;9.892;2022-10-19T03:57:36;2.47;;;1.87;;
16693;SDS011;39538;52.196;9.892;2022-10-19T04:00:04;3.23;;;1.33;;
16693;SDS011;39538;52.196;9.892;2022-10-19T04:02:32;5.77;;;2.23;;
16693;SDS011;39538;52.196;9.892;2022-10-19T04:04:58;4.67;;;1.47;;
16693;SDS011;39538;52.196;9.892;2022-10-19T04:07:25;7.17;;;1.53;;
16693;SDS011;39538;52.196;9.892;2022-10-19T04:09:51;1.87;;;1.57;;
16693;SDS011;39538;52.196;9.892;2022-10-19T04:12:18;2.67;;;1.37;;
16693;SDS011;39538;52.196;9.892;2022-10-19T04:14:45;5.63;;;3.67;;
16693;SDS011;39538;52.196;9.892;2022-10-19T04:17:13;3.80;;;1.50;;
16693;SDS011;39538;52.196;9.892;2022-10-19T04:19:39;4.77;;;2.63;;
16693;SDS011;39538;52.196;9.892;2022-10-19T04:22:06;6.53;;;3.13;;
16693;SDS011;39538;52.196;9.892;2022-10-19T04:24:32;4.20;;;1.87;;
16693;SDS011;39538;52.196;9.892;2022-10-19T04:27:00;3.80;;;1.40;;
16693;SDS011;39538;52.196;9.892;2022-10-19T04:29:26;5.60;;;3.13;;
16693;SDS011;39538;52.196;9.892;2022-10-19T04:31:53;4.23;;;1.93;;
16693;SDS011;39538;52.196;9.892;2022-10-19T04:34:21;6.90;;;1.50;;
16693;SDS011;39538;52.196;9.892;2022-10-19T04:36:48;3.33;;;1.50;;
16693;SDS011;39538;52.196;9.892;2022-10-19T04:39:15;10.40;;;1.60;;
16693;SDS011;39538;52.196;9.892;2022-10-19T04:41:41;2.63;;;2.43;;
16693;SDS011;39538;52.196;9.892;2022-10-19T04:44:08;6.10;;;2.57;;
16693;SDS011;39538;52.196;9.892;2022-10-19T04:46:35;3.23;;;1.90;;
16693;SDS011;39538;52.196;9.892;2022-10-19T04:49:02;7.37;;;2.23;;
16693;SDS011;39538;52.196;9.892;2022-10-19T04:51:32;6.13;;;3.00;;
16693;SDS011;39538;52.196;9.892;2022-10-19T04:53:59;5.13;;;1.93;;
16693;SDS011;39538;52.196;9.892;2022-10-19T04:56:27;3.50;;;2.17;;
16693;SDS011;39538;52.196;9.892;2022-10-19T04:58:55;14.17;;;2.70;;
16693;SDS011;39538;52.196;9.892;2022-10-19T05:01:23;8.47;;;2.90;;
16693;SDS011;39538;52.196;9.892;2022-10-19T05:03:52;5.93;;;2.60;;
16693;SDS011;39538;52.196;9.892;2022-10-19T05:06:20;5.47;;;1.93;;
16693;SDS011;39538;52.196;9.892;2022-10-19T05:08:48;3.30;;;1.90;;
16693;SDS011;39538;52.196;9.892;2022-10-19T05:11:16;6.63;;;6.17;;
16693;SDS011;39538;52.196;9.892;2022-10-19T05:13:43;6.17;;;4.17;;
16693;SDS011;39538;52.196;9.892;2022-10-19T05:16:11;3.57;;;2.57;;
16693;SDS011;39538;52.196;9.892;2022-10-19T05:18:39;3.03;;;2.10;;
16693;SDS011;39538;52.196;9.892;2022-10-19T05:21:06;3.47;;;1.70;;
16693;SDS011;39538;52.196;9.892;2022-10-19T05:23:34;10.17;;;2.37;;
16693;SDS011;39538;52.196;9.892;2022-10-19T05:26:03;5.93;;;3.17;;
16693;SDS011;39538;52.196;9.892;2022-10-19T05:28:32;5.17;;;2.10;;
16693;SDS011;39538;52.196;9.892;2022-10-19T05:31:06;10.37;;;1.83;;
16693;SDS011;39538;52.196;9.892;2022-10-19T05:33:35;4.53;;;1.97;;
16693;SDS011;39538;52.196;9.892;2022-10-19T05:36:09;6.17;;;2.13;;
16693;SDS011;39538;52.196;9.892;2022-10-19T05:38:37;13.47;;;3.60;;
16693;SDS011;39538;52.196;9.892;2022-10-19T05:41:05;5.00;;;2.53;;
16693;SDS011;39538;52.196;9.892;2022-10-19T05:43:32;4.87;;;2.20;;
16693;SDS011;39538;52.196;9.892;2022-10-19T05:46:01;4.73;;;1.93;;
16693;SDS011;39538;52.196;9.892;2022-10-19T05:48:29;8.27;;;1.90;;
16693;SDS011;39538;52.196;9.892;2022-10-19T05:50:57;7.87;;;2.60;;
16693;SDS011;39538;52.196;9.892;2022-10-19T05:53:24;6.07;;;2.73;;
16693;SDS011;39538;52.196;9.892;2022-10-19T05:55:51;6.33;;;3.37;;
16693;SDS011;39538;52.196;9.892;2022-10-19T05:58:19;13.70;;;5.03;;
16693;SDS011;39538;52.196;9.892;2022-10-19T06:00:49;4.83;;;4.30;;
16693;SDS011;39538;52.196;9.892;2022-10-19T06:03:16;7.93;;;3.67;;
16693;SDS011;39538;52.196;9.892;2022-10-19T06:05:43;7.67;;;2.87;;
16693;SDS011;39538;52.196;9.892;2022-10-19T06:08:09;4.03;;;3.70;;
16693;SDS011;39538;52.196;9.892;2022-10-19T06:10:36;5.73;;;2.27;;
16693;SDS011;39538;52.196;9.892;2022-10-19T06:13:03;7.93;;;2.80;;
16693;SDS011;39538;52.196;9.892;2022-10-19T06:15:32;9.07;;;3.03;;
16693;SDS011;39538;52.196;9.892;2022-10-19T06:18:00;7.33;;;2.20;;
16693;SDS011;39538;52.196;9.892;2022-10-19T06:20:28;8.13;;;2.20;;
16693;SDS011;39538;52.196;9.892;2022-10-19T06:22:55;5.60;;;1.93;;
16693;SDS011;39538;52.196;9.892;2022-10-19T06:25:22;4.23;;;1.97;;
16693;SDS011;39538;52.196;9.892;2022-10-19T06:27:49;3.50;;;2.13;;
16693;SDS011;39538;52.196;9.892;2022-10-19T06:30:15;8.07;;;2.10;;
16693;SDS011;39538;52.196;9.892;2022-10-19T06:32:43;5.83;;;1.67;;
16693;SDS011;39538;52.196;9.892;2022-10-19T06:35:10;14.10;;;2.70;;
16693;SDS011;39538;52.196;9.892;2022-10-19T06:37:37;3.87;;;1.73;;
16693;SDS011;39538;52.196;9.892;2022-10-19T06:40:03;4.23;;;1.67;;
16693;SDS011;39538;52.196;9.892;2022-10-19T06:42:31;3.70;;;1.70;;
16693;SDS011;39538;52.196;9.892;2022-10-19T06:44:58;5.63;;;2.27;;
16693;SDS011;39538;52.196;9.892;2022-10-19T06:47:24;5.13;;;2.50;;
16693;SDS011;39538;52.196;9.892;2022-10-19T06:49:56;7.20;;;2.00;;
16693;SDS011;39538;52.196;9.892;2022-10-19T06:52:23;7.13;;;1.97;;
16693;SDS011;39538;52.196;9.892;2022-10-19T06:54:49;3.97;;;2.47;;
16693;SDS011;39538;52.196;9.892;2022-10-19T06:57:16;3.70;;;1.67;;
16693;SDS011;39538;52.196;9.892;2022-10-19T06:59:43;11.77;;;2.13;;
16693;SDS011;39538;52.196;9.892;2022-10-19T07:02:09;11.00;;;4.63;;
16693;SDS011;39538;52.196;9.892;2022-10-19T07:04:36;15.43;;;1.70;;
16693;SDS011;39538;52.196;9.892;2022-10-19T07:07:04;6.13;;;1.93;;
16693;SDS011;39538;52.196;9.892;2022-10-19T07:09:31;4.50;;;2.10;;
16693;SDS011;39538;52.196;9.892;2022-10-19T07:11:58;4.90;;;1.50;;
16693;SDS011;39538;52.196;9.892;2022-10-19T07:14:24;5.17;;;1.90;;
16693;SDS011;39538;52.196;9.892;2022-10-19T07:16:52;6.77;;;1.73;;
16693;SDS011;39538;52.196;9.892;2022-10-19T07:19:19;7.30;;;2.27;;
16693;SDS011;39538;52.196;9.892;2022-10-19T07:21:49;4.20;;;2.50;;
16693;SDS011;39538;52.196;9.892;2022-10-19T07:24:17;16.77;;;2.63;;
16693;SDS011;39538;52.196;9.892;2022-10-19T07:26:44;6.73;;;2.27;;
16693;SDS011;39538;52.196;9.892;2022-10-19T07:29:11;4.23;;;1.80;;
16693;SDS011;39538;52.196;9.892;2022-10-19T07:31:37;9.37;;;2.67;;
16693;SDS011;39538;52.196;9.892;2022-10-19T07:34:04;4.20;;;2.93;;
16693;SDS011;39538;52.196;9.892;2022-10-19T07:36:31;7.33;;;2.30;;
16693;SDS011;39538;52.196;9.892;2022-10-19T07:39:01;7.33;;;2.13;;
16693;SDS011;39538;52.196;9.892;2022-10-19T07:41:30;3.37;;;1.83;;
16693;SDS011;39538;52.196;9.892;2022-10-19T07:43:59;9.90;;;2.33;;
16693;SDS011;39538;52.196;9.892;2022-10-19T07:46:27;3.87;;;1.60;;
16693;SDS011;39538;52.196;9.892;2022-10-19T07:48:57;4.33;;;2.70;;
16693;SDS011;39538;52.196;9.892;2022-10-19T07:51:25;3.03;;;1.60;;
16693;SDS011;39538;52.196;9.892;2022-10-19T07:53:52;8.33;;;2.57;;
16693;SDS011;39538;52.196;9.892;2022-10-19T07:56:19;7.07;;;2.17;;
16693;SDS011;39538;52.196;9.892;2022-10-19T07:58:49;4.57;;;2.30;;
16693;SDS011;39538;52.196;9.892;2022-10-19T08:01:17;3.20;;;1.40;;
16693;SDS011;39538;52.196;9.892;2022-10-19T08:03:45;7.33;;;1.60;;
16693;SDS011;39538;52.196;9.892;2022-10-19T08:06:15;4.13;;;1.53;;
16693;SDS011;39538;52.196;9.892;2022-10-19T08:08:43;7.97;;;1.60;;
16693;SDS011;39538;52.196;9.892;2022-10-19T08:11:12;6.30;;;2.10;;
16693;SDS011;39538;52.196;9.892;2022-10-19T08:13:40;2.50;;;1.00;;
16693;SDS011;39538;52.196;9.892;2022-10-19T08:16:19;9.17;;;3.07;;
16693;SDS011;39538;52.196;9.892;2022-10-19T08:18:48;8.47;;;1.93;;
16693;SDS011;39538;52.196;9.892;2022-10-19T08:21:15;11.80;;;2.27;;
16693;SDS011;39538;52.196;9.892;2022-10-19T08:23:42;2.53;;;0.90;;
16693;SDS011;39538;52.196;9.892;2022-10-19T08:26:08;8.63;;;1.37;;
16693;SDS011;39538;52.196;9.892;2022-10-19T08:28:35;4.80;;;1.53;;
16693;SDS011;39538;52.196;9.892;2022-10-19T08:31:07;11.93;;;1.20;;
16693;SDS011;39538;52.196;9.892;2022-10-19T08:33:36;7.63;;;0.70;;
16693;SDS011;39538;52.196;9.892;2022-10-19T08:36:04;6.60;;;1.90;;
16693;SDS011;39538;52.196;9.892;2022-10-19T08:38:31;4.63;;;0.90;;
16693;SDS011;39538;52.196;9.892;2022-10-19T08:41:02;4.03;;;0.90;;
16693;SDS011;39538;52.196;9.892;2022-10-19T08:43:34;3.23;;;0.80;;
16693;SDS011;39538;52.196;9.892;2022-10-19T08:46:08;4.53;;;1.40;;
16693;SDS011;39538;52.196;9.892;2022-10-19T08:48:41;2.50;;;0.73;;
16693;SDS011;39538;52.196;9.892;2022-10-19T08:51:08;5.30;;;0.70;;
16693;SDS011;39538;52.196;9.892;2022-10-19T08:53:39;2.60;;;0.77;;
16693;SDS011;39538;52.196;9.892;2022-10-19T08:56:19;4.87;;;1.57;;
16693;SDS011;39538;52.196;9.892;2022-10-19T08:58:55;2.23;;;1.00;;
16693;SDS011;39538;52.196;9.892;2022-10-19T09:01:36;5.57;;;0.93;;
16693;SDS011;39538;52.196;9.892;2022-10-19T09:04:11;7.70;;;1.20;;
16693;SDS011;39538;52.196;9.892;2022-10-19T09:06:45;3.93;;;0.80;;
16693;SDS011;39538;52.196;9.892;2022-10-19T09:09:21;5.03;;;0.90;;
16693;SDS011;39538;52.196;9.892;2022-10-19T09:11:49;3.13;;;1.00;;
16693;SDS011;39538;52.196;9.892;2022-10-19T09:14:22;6.20;;;1.20;;
16693;SDS011;39538;52.196;9.892;2022-10-19T09:16:55;3.90;;;0.70;;
16693;SDS011;39538;52.196;9.892;2022-10-19T09:19:28;1.93;;;0.80;;
16693;SDS011;39538;52.196;9.892;2022-10-19T09:21:56;3.60;;;1.33;;
16693;SDS011;39538;52.196;9.892;2022-10-19T09:24:26;4.30;;;1.80;;
16693;SDS011;39538;52.196;9.892;2022-10-19T09:26:55;2.83;;;0.77;;
16693;SDS011;39538;52.196;9.892;2022-10-19T09:29:24;2.73;;;0.83;;
16693;SDS011;39538;52.196;9.892;2022-10-19T09:31:58;4.13;;;1.20;;
16693;SDS011;39538;52.196;9.892;2022-10-19T09:34:28;3.30;;;0.40;;
16693;SDS011;39538;52.196;9.892;2022-10-19T09:36:58;4.10;;;0.80;;
16693;SDS011;39538;52.196;9.892;2022-10-19T09:39:26;2.30;;;1.63;;
16693;SDS011;39538;52.196;9.892;2022-10-19T09:41:55;4.03;;;1.40;;
16693;SDS011;39538;52.196;9.892;2022-10-19T09:44:25;2.57;;;0.90;;
16693;SDS011;39538;52.196;9.892;2022-10-19T09:46:54;4.97;;;1.43;;
16693;SDS011;39538;52.196;9.892;2022-10-19T09:49:39;4.63;;;0.60;;
16693;SDS011;39538;52.196;9.892;2022-10-19T09:52:23;3.30;;;1.53;;
16693;SDS011;39538;52.196;9.892;2022-10-19T09:55:00;2.93;;;0.83;;
16693;SDS011;39538;52.196;9.892;2022-10-19T09:57:28;5.17;;;1.20;;
16693;SDS011;39538;52.196;9.892;2022-10-19T09:59:55;5.50;;;1.70;;
16693;SDS011;39538;52.196;9.892;2022-10-19T10:02:27;3.80;;;0.90;;
16693;SDS011;39538;52.196;9.892;2022-10-19T10:05:02;10.30;;;0.63;;
16693;SDS011;39538;52.196;9.892;2022-10-19T10:07:32;2.17;;;0.53;;
16693;SDS011;39538;52.196;9.892;2022-10-19T10:10:00;4.23;;;1.10;;
16693;SDS011;39538;52.196;9.892;2022-10-19T10:12:27;3.10;;;0.70;;
16693;SDS011;39538;52.196;9.892;2022-10-19T10:14:53;2.43;;;0.87;;
16693;SDS011;39538;52.196;9.892;2022-10-19T10:17:21;2.03;;;0.47;;
16693;SDS011;39538;52.196;9.892;2022-10-19T10:20:03;2.80;;;0.60;;
16693;SDS011;39538;52.196;9.892;2022-10-19T10:22:43;2.97;;;0.63;;
16693;SDS011;39538;52.196;9.892;2022-10-19T10:25:18;1.53;;;0.60;;
16693;SDS011;39538;52.196;9.892;2022-10-19T10:27:52;2.57;;;0.60;;
16693;SDS011;39538;52.196;9.892;2022-10-19T10:30:20;3.33;;;0.60;;
16693;SDS011;39538;52.196;9.892;2022-10-19T10:32:48;3.77;;;0.80;;
16693;SDS011;39538;52.196;9.892;2022-10-19T10:35:18;3.77;;;0.70;;
16693;SDS011;39538;52.196;9.892;2022-10-19T10:37:48;5.37;;;2.40;;
16693;SDS011;39538;52.196;9.892;2022-10-19T10:40:18;3.10;;;0.70;;
16693;SDS011;39538;52.196;9.892;2022-10-19T10:42:48;2.60;;;0.73;;
16693;SDS011;39538;52.196;9.892;2022-10-19T10:45:19;3.47;;;0.70;;
16693;SDS011;39538;52.196;9.892;2022-10-19T10:47:49;4.60;;;0.57;;
16693;SDS011;39538;52.196;9.892;2022-10-19T10:50:20;1.30;;;0.40;;
16693;SDS011;39538;52.196;9.892;2022-10-19T10:52:56;5.20;;;2.00;;
16693;SDS011;39538;52.196;9.892;2022-10-19T10:55:23;2.80;;;0.90;;
16693;SDS011;39538;52.196;9.892;2022-10-19T10:57:52;2.30;;;0.77;;
16693;SDS011;39538;52.196;9.892;2022-10-19T11:00:27;2.73;;;0.60;;
16693;SDS011;39538;52.196;9.892;2022-10-19T11:02:55;2.20;;;0.53;;
16693;SDS011;39538;52.196;9.892;2022-10-19T11:05:29;3.80;;;0.80;;
16693;SDS011;39538;52.196;9.892;2022-10-19T11:08:00;1.57;;;0.80;;
16693;SDS011;39538;52.196;9.892;2022-10-19T11:10:32;3.80;;;0.90;;
16693;SDS011;39538;52.196;9.892;2022-10-19T11:13:03;2.47;;;0.60;;
16693;SDS011;39538;52.196;9.892;2022-10-19T11:15:36;7.07;;;0.80;;
16693;SDS011;39538;52.196;9.892;2022-10-19T11:18:13;2.97;;;0.63;;
16693;SDS011;39538;52.196;9.892;2022-10-19T11:20:46;3.57;;;1.57;;
16693;SDS011;39538;52.196;9.892;2022-10-19T11:23:19;4.67;;;1.33;;
16693;SDS011;39538;52.196;9.892;2022-10-19T11:25:59;4.47;;;1.37;;
16693;SDS011;39538;52.196;9.892;2022-10-19T11:28:40;6.93;;;1.00;;
16693;SDS011;39538;52.196;9.892;2022-10-19T11:31:19;1.60;;;0.50;;
16693;SDS011;39538;52.196;9.892;2022-10-19T11:33:57;2.37;;;1.10;;
16693;SDS011;39538;52.196;9.892;2022-10-19T11:36:37;1.10;;;0.67;;
16693;SDS011;39538;52.196;9.892;2022-10-19T11:39:18;3.10;;;1.17;;
16693;SDS011;39538;52.196;9.892;2022-10-19T11:41:55;2.27;;;0.60;;
16693;SDS011;39538;52.196;9.892;2022-10-19T11:44:29;3.67;;;1.00;;
16693;SDS011;39538;52.196;9.892;2022-10-19T11:47:12;3.63;;;0.90;;
16693;SDS011;39538;52.196;9.892;2022-10-19T11:49:50;2.07;;;0.60;;
16693;SDS011;39538;52.196;9.892;2022-10-19T11:52:30;2.70;;;0.73;;
16693;SDS011;39538;52.196;9.892;2022-10-19T11:55:12;1.70;;;0.80;;
16693;SDS011;39538;52.196;9.892;2022-10-19T11:57:52;1.97;;;0.60;;
16693;SDS011;39538;52.196;9.892;2022-10-19T12:00:24;4.37;;;0.83;;
16693;SDS011;39538;52.196;9.892;2022-10-19T12:03:10;0.90;;;0.60;;
16693;SDS011;39538;52.196;9.892;2022-10-19T12:06:03;3.37;;;1.00;;
16693;SDS011;39538;52.196;9.892;2022-10-19T12:08:43;4.50;;;0.87;;
16693;SDS011;39538;52.196;9.892;2022-10-19T12:11:22;4.57;;;1.20;;
16693;SDS011;39538;52.196;9.892;2022-10-19T12:13:59;3.50;;;1.43;;
16693;SDS011;39538;52.196;9.892;2022-10-19T12:16:33;2.40;;;1.00;;
16693;SDS011;39538;52.196;9.892;2022-10-19T12:19:03;10.23;;;1.57;;
16693;SDS011;39538;52.196;9.892;2022-10-19T12:21:33;5.47;;;2.07;;
16693;SDS011;39538;52.196;9.892;2022-10-19T12:24:05;6.37;;;0.67;;
16693;SDS011;39538;52.196;9.892;2022-10-19T12:26:38;2.27;;;0.70;;
16693;SDS011;39538;52.196;9.892;2022-10-19T12:29:08;5.47;;;0.80;;
16693;SDS011;39538;52.196;9.892;2022-10-19T12:31:39;5.33;;;2.63;;
16693;SDS011;39538;52.196;9.892;2022-10-19T12:34:07;3.27;;;0.93;;
16693;SDS011;39538;52.196;9.892;2022-10-19T12:36:46;3.53;;;1.20;;
16693;SDS011;39538;52.196;9.892;2022-10-19T12:39:20;2.70;;;1.00;;
16693;SDS011;39538;52.196;9.892;2022-10-19T12:41:54;4.37;;;1.00;;
16693;SDS011;39538;52.196;9.892;2022-10-19T12:44:42;1.70;;;0.83;;
16693;SDS011;39538;52.196;9.892;2022-10-19T12:47:32;4.77;;;1.27;;
16693;SDS011;39538;52.196;9.892;2022-10-19T12:49:58;3.63;;;1.17;;
16693;SDS011;39538;52.196;9.892;2022-10-19T12:52:35;3.50;;;1.10;;
16693;SDS011;39538;52.196;9.892;2022-10-19T12:57:59;5.83;;;1.20;;
16693;SDS011;39538;52.196;9.892;2022-10-19T13:00:29;6.13;;;0.90;;
16693;SDS011;39538;52.196;9.892;2022-10-19T13:02:58;2.90;;;0.73;;
16693;SDS011;39538;52.196;9.892;2022-10-19T13:05:31;4.60;;;0.70;;
16693;SDS011;39538;52.196;9.892;2022-10-19T13:07:59;9.13;;;1.30;;
16693;SDS011;39538;52.196;9.892;2022-10-19T13:10:29;3.43;;;1.27;;
16693;SDS011;39538;52.196;9.892;2022-10-19T13:12:57;4.20;;;0.80;;
16693;SDS011;39538;52.196;9.892;2022-10-19T13:21:46;6.37;;;1.03;;
16693;SDS011;39538;52.196;9.892;2022-10-19T13:24:29;3.80;;;1.00;;
16693;SDS011;39538;52.196;9.892;2022-10-19T13:27:23;4.33;;;1.57;;
16693;SDS011;39538;52.196;9.892;2022-10-19T13:29:53;4.00;;;1.10;;
16693;SDS011;39538;52.196;9.892;2022-10-19T13:32:36;3.30;;;1.10;;
16693;SDS011;39538;52.196;9.892;2022-10-19T13:35:23;3.27;;;1.93;;
16693;SDS011;39538;52.196;9.892;2022-10-19T13:38:10;3.73;;;1.73;;
16693;SDS011;39538;52.196;9.892;2022-10-19T13:41:07;2.57;;;1.40;;
16693;SDS011;39538;52.196;9.892;2022-10-19T13:43:38;2.47;;;1.40;;
16693;SDS011;39538;52.196;9.892;2022-10-19T13:46:15;3.87;;;1.77;;
16693;SDS011;39538;52.196;9.892;2022-10-19T13:48:57;3.53;;;1.97;;
16693;SDS011;39538;52.196;9.892;2022-10-19T13:52:02;4.33;;;1.87;;
16693;SDS011;39538;52.196;9.892;2022-10-19T13:54:45;4.30;;;2.03;;
16693;SDS011;39538;52.196;9.892;2022-10-19T13:57:28;2.07;;;1.73;;
16693;SDS011;39538;52.196;9.892;2022-10-19T14:00:13;3.63;;;2.20;;
16693;SDS011;39538;52.196;9.892;2022-10-19T14:08:29;3.00;;;2.03;;
16693;SDS011;39538;52.196;9.892;2022-10-19T14:11:10;5.13;;;3.63;;
16693;SDS011;39538;52.196;9.892;2022-10-19T14:13:39;2.60;;;2.27;;
16693;SDS011;39538;52.196;9.892;2022-10-19T14:16:15;6.50;;;3.50;;
16693;SDS011;39538;52.196;9.892;2022-10-19T14:18:51;3.07;;;2.87;;
16693;SDS011;39538;52.196;9.892;2022-10-19T14:21:30;2.37;;;2.13;;
16693;SDS011;39538;52.196;9.892;2022-10-19T14:23:58;4.23;;;2.43;;
16693;SDS011;39538;52.196;9.892;2022-10-19T14:26:25;5.90;;;2.03;;
16693;SDS011;39538;52.196;9.892;2022-10-19T14:28:54;4.50;;;2.97;;
16693;SDS011;39538;52.196;9.892;2022-10-19T14:31:24;13.93;;;3.90;;
16693;SDS011;39538;52.196;9.892;2022-10-19T14:33:57;3.33;;;1.50;;
16693;SDS011;39538;52.196;9.892;2022-10-19T14:36:29;7.87;;;2.37;;
16693;SDS011;39538;52.196;9.892;2022-10-19T14:38:59;8.30;;;1.90;;
16693;SDS011;39538;52.196;9.892;2022-10-19T14:41:28;3.53;;;1.97;;
16693;SDS011;39538;52.196;9.892;2022-10-19T14:43:56;3.27;;;1.80;;
16693;SDS011;39538;52.196;9.892;2022-10-19T14:46:25;2.93;;;1.93;;
16693;SDS011;39538;52.196;9.892;2022-10-19T14:48:57;6.80;;;2.10;;
16693;SDS011;39538;52.196;9.892;2022-10-19T14:51:27;17.57;;;3.00;;
16693;SDS011;39538;52.196;9.892;2022-10-19T14:53:58;3.23;;;1.97;;
16693;SDS011;39538;52.196;9.892;2022-10-19T14:56:30;7.97;;;2.40;;
16693;SDS011;39538;52.196;9.892;2022-10-19T14:59:02;3.77;;;2.10;;
16693;SDS011;39538;52.196;9.892;2022-10-19T15:01:34;3.33;;;2.07;;
16693;SDS011;39538;52.196;9.892;2022-10-19T15:04:01;10.37;;;1.93;;
16693;SDS011;39538;52.196;9.892;2022-10-19T15:06:28;2.83;;;1.47;;
16693;SDS011;39538;52.196;9.892;2022-10-19T15:09:00;5.77;;;1.60;;
16693;SDS011;39538;52.196;9.892;2022-10-19T15:11:30;3.40;;;1.97;;
16693;SDS011;39538;52.196;9.892;2022-10-19T15:14:02;1.90;;;1.70;;
16693;SDS011;39538;52.196;9.892;2022-10-19T15:16:39;12.87;;;2.43;;
16693;SDS011;39538;52.196;9.892;2022-10-19T15:19:16;4.73;;;2.07;;
16693;SDS011;39538;52.196;9.892;2022-10-19T15:21:46;5.93;;;1.80;;
16693;SDS011;39538;52.196;9.892;2022-10-19T15:24:30;2.47;;;1.90;;
16693;SDS011;39538;52.196;9.892;2022-10-19T15:27:06;2.50;;;1.77;;